Impacts METAR Board
IDs:

KLAS - Las Vegas/Reid Intl, NV, US

Updated at: 2200 UTC 01 Feb 2023
Potential Impact None Slight Moderate High
Time 01/10Z 01/11Z 01/12Z 01/13Z 01/14Z 01/15Z 01/16Z 01/17Z 01/18Z 01/19Z 01/20Z 01/21Z 01/22Z
Temp32 32 31 31 31 31 35 40 43 46 47 51 53
Dewpt15 15 15 15 15 15 15 13 11 11 12 12 13
Altim30.25 30.25 30.25 30.25 30.26 30.26 30.28 30.29 30.29 30.28 30.25 30.23 30.22
VIS10 10 10 10 10 10 10 10 10 10 10 10 10
CIG-- -- -- -- -- -- -- -- -- -- -- -- --
CoverCLRCLRCLRCLRCLRCLRCLRCLRFEWFEWFEWFEWFEW
FltCatVFRVFRVFRVFRVFRVFRVFRVFRVFRVFRVFRVFRVFR
WX--------------------------
WDir200230230210020000600160060
WSpd3 3 4 5 0 4 0 0 4 0 3 4 5
WGst-- -- -- -- -- -- -- -- -- -- -- -- --
Raw hourly METARs
KLAS 010956Z 20003KT 10SM CLR 00/M09 A3025 RMK AO2 SLP251 T00001094
KLAS 011056Z 23003KT 10SM CLR 00/M09 A3025 RMK AO2 SLP248 T00001094
KLAS 011156Z 23004KT 10SM CLR M01/M09 A3025 RMK AO2 SLP249 T10061094 10028 21006 58002
KLAS 011256Z 21005KT 10SM CLR M01/M09 A3025 RMK AO2 SLP250 T10061094
KLAS 011356Z 00000KT 10SM CLR M01/M09 A3026 RMK AO2 SLP255 T10061094
KLAS 011456Z 20004KT 10SM CLR M01/M09 A3026 RMK AO2 SLP258 T10061094 53005
KLAS 011556Z 00000KT 10SM CLR 02/M09 A3028 RMK AO2 SLP262 T00171094
KLAS 011656Z 00000KT 10SM CLR 04/M11 A3029 RMK AO2 SLP265 T00441106
KLAS 011756Z 06004KT 10SM FEW250 06/M12 A3029 RMK AO2 SLP264 T00611117 10061 21011 51009
KLAS 011856Z 00000KT 10SM FEW250 08/M12 A3028 RMK AO2 SLP259 T00781117
KLAS 011956Z 16003KT 10SM FEW250 08/M11 A3025 RMK AO2 SLP250 T00831111
KLAS 012056Z VRB04KT 10SM FEW250 11/M11 A3023 RMK AO2 SLP243 T01061111 58019
KLAS 012156Z 06005KT 10SM FEW250 12/M11 A3022 RMK AO2 SLP236 T01171106



Page loaded:  22:45 UTC  |   02:45 PM Pacific  |   03:45 PM Mountain  |   04:45 PM Central  |   05:45 PM Eastern

 

ADVISORIES

FORECASTS

FORECASTS

OBSERVATIONS

USER TOOLS

ABOUT US